createdAt,value
2023-03-26T00:01:17.312Z,99704.28
2023-03-26T00:03:53.498Z,99714.91
2023-03-26T00:06:29.026Z,99715.41
2023-03-26T00:08:57.556Z,99709.47
2023-03-26T00:11:27.851Z,99720.13
2023-03-26T00:13:57.726Z,99725.47
2023-03-26T00:16:28.229Z,99728.94
2023-03-26T00:18:55.741Z,99728.09
2023-03-26T00:21:27.724Z,99733.31
2023-03-26T00:23:56.266Z,99738.25
2023-03-26T00:26:24.020Z,99737.00
2023-03-26T00:28:50.997Z,99742.69
2023-03-26T00:31:18.114Z,99742.00
2023-03-26T00:33:44.828Z,99745.97
2023-03-26T00:36:15.274Z,99755.72
2023-03-26T00:38:43.195Z,99753.53
2023-03-26T00:41:25.009Z,99761.44
2023-03-26T00:43:57.494Z,99759.16
2023-03-26T00:46:26.238Z,99756.47
2023-03-26T00:48:53.652Z,99756.00
2023-03-26T00:51:21.647Z,99760.38
2023-03-26T00:53:49.993Z,99763.88
2023-03-26T00:56:17.705Z,99768.78
2023-03-26T00:58:46.060Z,99775.94
2023-03-26T01:01:16.366Z,99774.50
2023-03-26T01:03:53.628Z,99775.94
2023-03-26T01:06:35.914Z,99780.19
2023-03-26T01:09:18.753Z,99771.88
2023-03-26T01:11:48.748Z,99783.00
2023-03-26T01:14:19.187Z,99786.13
2023-03-26T01:16:52.151Z,99787.81
2023-03-26T01:19:31.646Z,99788.28
2023-03-26T01:21:59.065Z,99783.16
2023-03-26T01:24:26.256Z,99784.69
2023-03-26T01:27:43.365Z,99790.91
2023-03-26T01:30:17.151Z,99793.44
2023-03-26T01:32:51.096Z,99790.94
2023-03-26T01:35:30.772Z,99802.34
2023-03-26T01:38:23.045Z,99785.34
2023-03-26T01:41:19.636Z,99805.41
2023-03-26T01:43:54.197Z,99816.75
2023-03-26T01:46:23.818Z,99810.44
2023-03-26T01:48:51.893Z,99821.53
2023-03-26T01:51:44.967Z,99817.38
2023-03-26T01:54:17.149Z,99816.13
2023-03-26T01:57:05.952Z,99819.81
2023-03-26T01:59:47.664Z,99813.94
2023-03-26T02:02:26.817Z,99824.13
2023-03-26T02:05:02.723Z,99824.25
2023-03-26T02:07:51.047Z,99827.47
2023-03-26T02:10:25.669Z,99826.63
2023-03-26T02:12:53.164Z,99831.41
2023-03-26T02:15:20.948Z,99831.59
2023-03-26T02:17:49.250Z,99824.75
2023-03-26T02:20:18.855Z,99842.00
2023-03-26T02:22:47.256Z,99832.06
2023-03-26T02:25:20.465Z,99833.25
2023-03-26T02:27:50.332Z,99828.38
2023-03-26T02:30:21.648Z,99836.22
2023-03-26T02:32:52.336Z,99827.41
2023-03-26T02:35:21.917Z,99818.22
2023-03-26T02:37:52.668Z,99823.09
2023-03-26T02:40:22.400Z,99831.19
2023-03-26T02:42:50.544Z,99828.50
2023-03-26T02:45:17.431Z,99828.69
2023-03-26T02:48:20.415Z,99831.63
2023-03-26T02:50:54.658Z,99831.22
2023-03-26T02:53:41.278Z,99832.34
2023-03-26T02:56:37.299Z,99835.16
2023-03-26T02:59:17.841Z,99839.06
2023-03-26T03:01:48.029Z,99833.31
2023-03-26T03:04:17.962Z,99843.22
2023-03-26T03:06:45.497Z,99839.56
2023-03-26T03:09:12.955Z,99842.94
2023-03-26T03:12:08.866Z,99851.13
2023-03-26T03:14:35.780Z,99845.56
2023-03-26T03:17:02.469Z,99849.69
2023-03-26T03:19:30.946Z,99851.22
2023-03-26T03:21:57.869Z,99849.28
2023-03-26T03:24:24.568Z,99837.97
2023-03-26T03:26:55.015Z,99845.88
2023-03-26T03:29:33.216Z,99837.97
2023-03-26T03:32:22.473Z,99839.38
2023-03-26T03:34:51.502Z,99843.88
2023-03-26T03:37:19.442Z,99842.50
2023-03-26T03:39:54.213Z,99840.50
2023-03-26T03:42:22.919Z,99843.75
2023-03-26T03:44:54.623Z,99841.13
2023-03-26T03:47:39.979Z,99847.97
2023-03-26T03:50:07.860Z,99857.31
2023-03-26T03:52:36.025Z,99854.59
2023-03-26T03:55:02.967Z,99855.09
2023-03-26T03:57:43.194Z,99851.78
2023-03-26T04:00:15.552Z,99839.66
2023-03-26T04:02:43.081Z,99838.69
2023-03-26T04:05:11.714Z,99841.28
2023-03-26T04:07:45.224Z,99844.97
2023-03-26T04:10:27.018Z,99841.44
2023-03-26T04:13:29.361Z,99846.94
2023-03-26T04:16:10.398Z,99854.09
2023-03-26T04:18:38.238Z,99844.78
2023-03-26T04:21:12.711Z,99837.06
2023-03-26T04:23:39.588Z,99840.44
2023-03-26T04:26:20.185Z,99828.13
2023-03-26T04:29:18.198Z,99825.66
2023-03-26T04:31:47.193Z,99823.81
2023-03-26T04:34:26.108Z,99824.53
2023-03-26T04:37:02.924Z,99822.06
2023-03-26T04:39:34.111Z,99830.28
2023-03-26T04:42:37.771Z,99826.56
2023-03-26T04:45:38.482Z,99832.72
2023-03-26T04:48:07.315Z,99831.56
2023-03-26T04:50:34.500Z,99829.53
2023-03-26T04:53:02.422Z,99824.41
2023-03-26T04:56:26.415Z,99833.41
2023-03-26T04:59:26.275Z,99842.13
2023-03-26T05:01:55.286Z,99840.63
2023-03-26T05:04:29.467Z,99832.19
2023-03-26T05:06:58.442Z,99836.84
2023-03-26T05:09:38.286Z,99835.16
2023-03-26T05:12:13.519Z,99827.38
2023-03-26T05:15:03.582Z,99840.75
2023-03-26T05:17:55.452Z,99844.50
2023-03-26T05:20:36.917Z,99840.44
2023-03-26T05:23:07.423Z,99841.47
2023-03-26T05:25:41.248Z,99837.28
2023-03-26T05:28:15.486Z,99844.91
2023-03-26T05:30:53.831Z,99841.31
2023-03-26T05:33:22.779Z,99849.47
2023-03-26T05:36:13.313Z,99850.06
2023-03-26T05:38:47.331Z,99854.34
2023-03-26T05:41:18.366Z,99850.97
2023-03-26T05:43:47.858Z,99852.59
2023-03-26T05:46:27.259Z,99858.66
2023-03-26T05:48:54.087Z,99850.50
2023-03-26T05:51:23.458Z,99859.41
2023-03-26T05:54:00.316Z,99849.53
2023-03-26T05:56:32.759Z,99856.16
2023-03-26T05:59:25.658Z,99857.34
2023-03-26T06:02:12.531Z,99869.75
2023-03-26T06:04:40.856Z,99874.59
2023-03-26T06:07:27.115Z,99861.56
2023-03-26T06:10:14.600Z,99870.44
2023-03-26T06:12:45.764Z,99866.47
2023-03-26T06:15:12.912Z,99863.38
2023-03-26T06:17:59.814Z,99864.56
2023-03-26T06:20:47.980Z,99863.81
2023-03-26T06:23:28.198Z,99870.16
2023-03-26T06:26:15.515Z,99868.84
2023-03-26T06:29:14.776Z,99869.28
2023-03-26T06:31:58.124Z,99878.00
2023-03-26T06:34:35.867Z,99882.63
2023-03-26T06:37:02.546Z,99893.28
2023-03-26T06:39:30.219Z,99884.00
2023-03-26T06:42:17.413Z,99888.28
2023-03-26T06:44:57.353Z,99890.22
2023-03-26T06:47:47.456Z,99885.00
2023-03-26T06:50:43.857Z,99889.28
2023-03-26T06:53:26.648Z,99892.19
2023-03-26T06:56:08.883Z,99889.63
2023-03-26T06:59:14.104Z,99897.78
2023-03-26T07:01:59.390Z,99894.28
2023-03-26T07:04:44.466Z,99899.44
2023-03-26T07:07:29.414Z,99897.94
2023-03-26T07:10:15.102Z,99897.47
2023-03-26T07:13:11.084Z,99892.34
2023-03-26T07:15:56.446Z,99891.78
2023-03-26T07:18:23.106Z,99890.50
2023-03-26T07:20:52.489Z,99892.19
2023-03-26T07:23:21.352Z,99894.91
2023-03-26T07:25:57.240Z,99895.66
2023-03-26T07:29:04.436Z,99891.97
2023-03-26T07:32:18.876Z,99886.34
2023-03-26T07:35:23.413Z,99896.34
2023-03-26T07:38:41.254Z,99890.06
2023-03-26T07:41:51.083Z,99892.59
2023-03-26T07:45:03.239Z,99897.78
2023-03-26T07:47:53.881Z,99907.38
2023-03-26T07:50:31.561Z,99890.72
2023-03-26T07:53:21.624Z,99890.66
2023-03-26T07:56:15.986Z,99892.31
2023-03-26T07:59:19.368Z,99886.03
2023-03-26T08:02:34.464Z,99895.56
2023-03-26T08:05:57.917Z,99899.50
2023-03-26T08:09:06.769Z,99899.84
2023-03-26T08:11:54.228Z,99900.34
2023-03-26T08:14:36.420Z,99903.63
2023-03-26T08:17:14.161Z,99897.16
2023-03-26T08:19:49.106Z,99899.28
2023-03-26T08:22:56.644Z,99894.47
2023-03-26T08:25:35.125Z,99892.63
2023-03-26T08:28:27.851Z,99900.53
2023-03-26T08:30:55.221Z,99901.84
2023-03-26T08:33:25.907Z,99889.47
2023-03-26T08:35:52.947Z,99898.25
2023-03-26T08:38:20.953Z,99887.81
2023-03-26T08:43:51.566Z,99897.50
2023-03-26T08:46:38.868Z,99896.06
2023-03-26T08:49:46.208Z,99903.91
2023-03-26T08:53:03.229Z,99902.22
2023-03-26T08:55:38.240Z,99910.50
2023-03-26T08:58:33.213Z,99908.66
2023-03-26T09:01:30.966Z,99899.41
2023-03-26T09:04:40.335Z,99887.88
2023-03-26T09:07:40.858Z,99888.38
2023-03-26T09:10:07.455Z,99881.56
2023-03-26T09:13:29.413Z,99882.72
2023-03-26T09:16:10.033Z,99876.25
2023-03-26T09:19:02.396Z,99884.72
2023-03-26T09:21:44.040Z,99887.94
2023-03-26T09:24:24.341Z,99892.59
2023-03-26T09:26:59.839Z,99886.09
2023-03-26T09:29:54.316Z,99894.66
2023-03-26T09:32:59.774Z,99886.78
2023-03-26T09:36:08.737Z,99878.84
2023-03-26T09:38:57.548Z,99877.53
2023-03-26T09:41:48.205Z,99881.97
2023-03-26T09:44:44.222Z,99880.47
2023-03-26T09:47:19.819Z,99883.63
2023-03-26T09:50:14.214Z,99887.28
2023-03-26T09:53:07.566Z,99896.09
2023-03-26T09:55:51.100Z,99886.31
2023-03-26T09:58:41.340Z,99887.63
2023-03-26T10:01:25.211Z,99888.97
2023-03-26T10:04:03.891Z,99897.88
2023-03-26T10:06:37.177Z,99897.38
2023-03-26T10:09:28.428Z,99902.97
2023-03-26T10:12:20.604Z,99905.66
2023-03-26T10:15:04.375Z,99900.69
2023-03-26T10:17:46.717Z,99901.22
2023-03-26T10:20:36.225Z,99900.78
2023-03-26T10:23:18.561Z,99902.09
2023-03-26T10:25:47.845Z,99901.59
2023-03-26T10:28:20.288Z,99906.22
2023-03-26T10:31:29.093Z,99903.13
2023-03-26T10:34:28.728Z,99905.78
2023-03-26T10:37:32.486Z,99903.03
2023-03-26T10:40:32.458Z,99895.69
2023-03-26T10:43:31.382Z,99906.53
2023-03-26T10:46:24.921Z,99905.63
2023-03-26T10:49:16.205Z,99905.78
2023-03-26T10:51:50.452Z,99920.75
2023-03-26T10:54:28.902Z,99916.31
2023-03-26T10:56:56.670Z,99906.28
2023-03-26T10:59:27.070Z,99905.25
2023-03-26T11:02:01.337Z,99906.31
2023-03-26T11:04:46.373Z,99895.50
2023-03-26T11:07:31.694Z,99888.75
2023-03-26T11:10:11.879Z,99897.19
2023-03-26T11:13:06.322Z,99896.00
2023-03-26T11:15:35.897Z,99903.03
2023-03-26T11:18:18.922Z,99903.78
2023-03-26T11:20:54.770Z,99906.53
2023-03-26T11:24:06.049Z,99903.88
2023-03-26T11:27:14.902Z,99903.16
2023-03-26T11:30:35.682Z,99897.00
2023-03-26T11:33:06.826Z,99893.31
2023-03-26T11:35:42.714Z,99891.34
2023-03-26T11:38:23.386Z,99904.50
2023-03-26T11:40:54.339Z,99899.25
2023-03-26T11:43:39.859Z,99904.28
2023-03-26T11:46:12.213Z,99899.25
2023-03-26T11:48:45.059Z,99893.69
2023-03-26T11:51:37.658Z,99890.75
2023-03-26T11:54:07.843Z,99891.81
2023-03-26T11:57:04.389Z,99896.56
2023-03-26T11:59:56.511Z,99886.13
2023-03-26T12:02:34.043Z,99878.41
2023-03-26T12:05:24.968Z,99888.56
2023-03-26T12:07:59.854Z,99883.84
2023-03-26T12:10:37.713Z,99879.91
2023-03-26T12:13:21.215Z,99880.56
2023-03-26T12:15:48.215Z,99885.00
2023-03-26T12:18:26.393Z,99881.84
2023-03-26T12:21:22.678Z,99899.31
2023-03-26T12:24:02.529Z,99886.34
2023-03-26T12:26:41.690Z,99872.06
2023-03-26T12:29:10.454Z,99885.06
2023-03-26T12:31:46.890Z,99877.69
2023-03-26T12:34:19.397Z,99878.66
2023-03-26T12:36:52.330Z,99874.59
2023-03-26T12:40:09.973Z,99868.31
2023-03-26T12:44:46.779Z,99868.91
2023-03-26T12:45:21.748Z,99883.53
2023-03-26T12:47:58.926Z,99874.56
2023-03-26T12:50:59.261Z,99869.53
2023-03-26T12:53:50.536Z,99878.81
2023-03-26T12:56:37.005Z,99877.94
2023-03-26T12:59:09.419Z,99881.72
2023-03-26T13:01:54.633Z,99881.31
2023-03-26T13:04:24.240Z,99874.78
2023-03-26T13:07:06.535Z,99875.66
2023-03-26T13:10:16.106Z,99883.00
2023-03-26T13:13:05.080Z,99876.25
2023-03-26T13:15:37.010Z,99877.03
2023-03-26T13:18:23.261Z,99881.41
2023-03-26T13:21:00.570Z,99875.22
2023-03-26T13:23:46.045Z,99870.59
2023-03-26T13:26:12.621Z,99874.50
2023-03-26T13:28:48.813Z,99879.84
2023-03-26T13:31:21.829Z,99869.78
2023-03-26T13:34:34.047Z,99878.53
2023-03-26T13:37:04.456Z,99859.25
2023-03-26T13:39:51.671Z,99863.44
2023-03-26T13:42:21.827Z,99874.78
2023-03-26T13:45:04.532Z,99865.38
2023-03-26T13:47:36.773Z,99866.88
2023-03-26T13:50:09.853Z,99866.41
2023-03-26T13:52:55.987Z,99872.41
2023-03-26T13:55:43.491Z,99862.72
2023-03-26T13:58:34.636Z,99858.47
2023-03-26T14:01:18.246Z,99859.34
2023-03-26T14:03:58.048Z,99854.84
2023-03-26T14:06:57.574Z,99861.91
2023-03-26T14:09:31.808Z,99869.84
2023-03-26T14:12:32.109Z,99873.66
2023-03-26T14:15:05.852Z,99878.31
2023-03-26T14:17:47.452Z,99876.75
2023-03-26T14:20:25.549Z,99873.09
2023-03-26T14:23:14.697Z,99875.22
2023-03-26T14:26:06.751Z,99872.69
2023-03-26T14:28:55.117Z,99884.91
2023-03-26T14:31:34.230Z,99880.94
2023-03-26T14:34:34.309Z,99886.94
2023-03-26T14:37:06.087Z,99873.16
2023-03-26T14:39:44.171Z,99888.50
2023-03-26T14:42:31.952Z,99890.50
2023-03-26T14:45:23.413Z,99879.53
2023-03-26T14:48:17.667Z,99877.66
2023-03-26T14:51:01.400Z,99882.19
2023-03-26T14:53:33.446Z,99878.38
2023-03-26T14:56:15.678Z,99882.75
2023-03-26T14:59:03.508Z,99876.81
2023-03-26T15:02:07.410Z,99878.16
2023-03-26T15:05:08.313Z,99885.97
2023-03-26T15:08:05.765Z,99887.78
2023-03-26T15:10:45.354Z,99892.84
2023-03-26T15:13:43.085Z,99885.56
2023-03-26T15:16:21.030Z,99889.66
2023-03-26T15:19:09.417Z,99883.00
2023-03-26T15:21:45.231Z,99884.03
2023-03-26T15:24:17.907Z,99885.22
2023-03-26T15:26:50.117Z,99881.66
2023-03-26T15:29:45.798Z,99892.13
2023-03-26T15:32:45.773Z,99893.91
2023-03-26T15:35:21.371Z,99891.84
2023-03-26T15:37:54.264Z,99892.63
2023-03-26T15:40:43.000Z,99894.09
2023-03-26T15:43:12.949Z,99888.69
2023-03-26T15:46:07.395Z,99899.50
2023-03-26T15:49:00.117Z,99901.38
2023-03-26T15:52:03.834Z,99901.28
2023-03-26T15:54:37.065Z,99898.41
2023-03-26T15:57:16.654Z,99902.50
2023-03-26T16:00:22.571Z,99902.78
2023-03-26T16:02:55.353Z,99903.53
2023-03-26T16:05:40.057Z,99914.38
2023-03-26T16:08:14.762Z,99919.69
2023-03-26T16:11:00.333Z,99912.06
2023-03-26T16:13:34.855Z,99921.34
2023-03-26T16:16:04.279Z,99919.94
2023-03-26T16:18:37.729Z,99919.34
2023-03-26T16:21:31.466Z,99916.16
2023-03-26T16:24:02.166Z,99924.78
2023-03-26T16:26:31.721Z,99932.28
2023-03-26T16:29:28.002Z,99927.50
2023-03-26T16:32:09.808Z,99934.84
2023-03-26T16:34:59.711Z,99933.19
2023-03-26T16:37:33.645Z,99931.00
2023-03-26T16:40:18.683Z,99933.19
2023-03-26T16:43:16.359Z,99935.50
2023-03-26T16:46:20.384Z,99933.38
2023-03-26T16:48:47.048Z,99936.03
2023-03-26T16:51:42.237Z,99942.16
2023-03-26T16:54:47.886Z,99952.94
2023-03-26T16:57:23.753Z,99950.25
2023-03-26T17:00:24.575Z,99956.63
2023-03-26T17:03:37.664Z,99957.81
2023-03-26T17:06:45.708Z,99961.09
2023-03-26T17:09:24.706Z,99976.53
2023-03-26T17:12:02.763Z,99966.41
2023-03-26T17:15:16.404Z,99976.88
2023-03-26T17:18:07.021Z,99976.13
2023-03-26T17:20:39.452Z,99979.66
2023-03-26T17:23:14.613Z,99981.94
2023-03-26T17:25:54.345Z,99976.38
2023-03-26T17:28:51.577Z,99989.81
2023-03-26T17:31:56.933Z,99991.66
2023-03-26T17:34:32.620Z,99989.22
2023-03-26T17:37:00.922Z,99999.50
2023-03-26T17:39:39.703Z,99998.22
2023-03-26T17:42:25.632Z,100007.69
2023-03-26T17:45:01.227Z,100007.69
2023-03-26T17:47:42.240Z,100012.53
2023-03-26T17:50:19.693Z,100012.75
2023-03-26T17:52:55.212Z,100012.38
2023-03-26T17:55:31.316Z,100020.13
2023-03-26T17:58:19.236Z,100026.13
2023-03-26T18:00:51.052Z,100030.84
2023-03-26T18:03:30.844Z,100031.81
2023-03-26T18:06:07.232Z,100037.28
2023-03-26T18:08:41.488Z,100032.22
2023-03-26T18:11:17.003Z,100049.94
2023-03-26T18:13:52.548Z,100041.47
2023-03-26T18:16:39.084Z,100049.38
2023-03-26T18:19:22.025Z,100052.47
2023-03-26T18:21:51.945Z,100065.16
2023-03-26T18:24:27.607Z,100057.28
2023-03-26T18:26:58.498Z,100072.22
2023-03-26T18:29:35.272Z,100075.50
2023-03-26T18:32:11.447Z,100078.56
2023-03-26T18:34:41.451Z,100078.63
2023-03-26T18:37:17.661Z,100077.06
2023-03-26T18:39:57.617Z,100081.19
2023-03-26T18:42:25.335Z,100088.03
2023-03-26T18:44:53.934Z,100094.53
2023-03-26T18:47:29.424Z,100094.69
2023-03-26T18:49:58.127Z,100093.88
2023-03-26T18:52:27.914Z,100101.66
2023-03-26T18:54:56.698Z,100102.13
2023-03-26T18:57:26.114Z,100106.13
2023-03-26T18:59:55.866Z,100108.75
2023-03-26T19:02:24.787Z,100112.25
2023-03-26T19:04:54.324Z,100118.41
2023-03-26T19:07:26.492Z,100123.69
2023-03-26T19:09:56.377Z,100126.38
2023-03-26T19:12:28.876Z,100128.22
2023-03-26T19:15:02.317Z,100131.31
2023-03-26T19:17:34.443Z,100127.78
2023-03-26T19:20:01.669Z,100144.94
2023-03-26T19:22:30.427Z,100138.66
2023-03-26T19:25:01.281Z,100141.13
2023-03-26T19:27:28.330Z,100142.97
2023-03-26T19:29:55.190Z,100146.97
2023-03-26T19:32:32.387Z,100153.53
2023-03-26T19:35:01.199Z,100157.03
2023-03-26T19:37:30.714Z,100155.69
2023-03-26T19:40:07.156Z,100152.19
2023-03-26T19:42:42.884Z,100170.38
2023-03-26T19:45:17.765Z,100165.66
2023-03-26T19:47:50.409Z,100165.75
2023-03-26T19:50:29.345Z,100167.25
2023-03-26T19:53:17.013Z,100174.72
2023-03-26T19:55:58.969Z,100174.84
2023-03-26T19:58:26.498Z,100179.38
2023-03-26T20:00:55.649Z,100183.53
2023-03-26T20:03:29.227Z,100185.59
2023-03-26T20:05:56.390Z,100187.69
2023-03-26T20:08:27.069Z,100181.91
2023-03-26T20:10:56.554Z,100192.22
2023-03-26T20:13:23.373Z,100198.25
2023-03-26T20:16:07.515Z,100200.13
2023-03-26T20:18:37.628Z,100213.91
2023-03-26T20:21:12.280Z,100209.59
2023-03-26T20:23:40.732Z,100210.44
2023-03-26T20:26:12.082Z,100211.19
2023-03-26T20:28:47.492Z,100221.47
2023-03-26T20:31:26.235Z,100219.66
2023-03-26T20:33:54.207Z,100216.72
2023-03-26T20:36:34.008Z,100226.16
2023-03-26T20:39:05.974Z,100238.56
2023-03-26T20:45:29.825Z,100237.16
2023-03-26T20:48:00.451Z,100244.91
2023-03-26T20:50:50.781Z,100250.66
2023-03-26T20:53:33.328Z,100247.94
2023-03-26T20:56:33.229Z,100251.16
2023-03-26T20:59:37.819Z,100251.84
2023-03-26T21:02:15.180Z,100250.50
2023-03-26T21:04:55.736Z,100256.22
2023-03-26T21:08:04.556Z,100257.94
2023-03-26T21:18:23.403Z,100261.41
2023-03-26T21:28:42.435Z,100287.22
2023-03-26T21:34:39.666Z,100293.28
2023-03-26T21:37:31.245Z,100298.00
2023-03-26T21:40:19.033Z,100304.91
2023-03-26T21:43:22.200Z,100306.19
2023-03-26T21:46:07.752Z,100313.84
2023-03-26T21:49:04.348Z,100319.13
2023-03-26T21:51:41.262Z,100309.97
2023-03-26T21:54:24.516Z,100329.31
2023-03-26T21:57:10.622Z,100328.19
2023-03-26T22:00:12.144Z,100327.88
2023-03-26T22:02:42.897Z,100343.34
2023-03-26T22:05:23.161Z,100338.75
2023-03-26T22:08:14.505Z,100334.38
2023-03-26T22:10:43.943Z,100344.50
2023-03-26T22:13:18.961Z,100352.66
2023-03-26T22:18:34.674Z,100351.47
2023-03-26T22:21:04.179Z,100360.09
2023-03-26T22:23:45.985Z,100362.88
2023-03-26T22:26:15.640Z,100366.69
2023-03-26T22:28:49.342Z,100358.34
2023-03-26T22:31:53.926Z,100370.97
2023-03-26T22:34:36.770Z,100373.06
2023-03-26T22:41:58.606Z,100386.78
2023-03-26T22:44:23.540Z,100394.69
2023-03-26T22:46:54.426Z,100406.41
2023-03-26T22:49:21.374Z,100410.28
2023-03-26T22:51:48.241Z,100415.94
2023-03-26T22:54:14.964Z,100409.81
2023-03-26T22:56:41.712Z,100421.94
2023-03-26T22:59:08.688Z,100414.16
2023-03-26T23:01:36.142Z,100422.53
2023-03-26T23:04:03.094Z,100425.50
2023-03-26T23:06:29.925Z,100427.16
2023-03-26T23:08:57.067Z,100432.47
2023-03-26T23:11:23.980Z,100437.19
2023-03-26T23:13:51.272Z,100440.97
2023-03-26T23:16:19.179Z,100436.09
2023-03-26T23:18:46.112Z,100446.09
2023-03-26T23:21:15.213Z,100448.16
2023-03-26T23:23:42.232Z,100450.13
2023-03-26T23:26:08.913Z,100462.91
2023-03-26T23:28:35.950Z,100457.00
2023-03-26T23:31:05.720Z,100453.50
2023-03-26T23:33:35.400Z,100462.81
2023-03-26T23:36:08.736Z,100458.19
2023-03-26T23:38:43.591Z,100466.38
2023-03-26T23:41:14.840Z,100473.25
2023-03-26T23:43:54.807Z,100476.41
2023-03-26T23:46:33.107Z,100479.28
2023-03-26T23:49:02.333Z,100476.81
2023-03-26T23:51:32.733Z,100485.97
2023-03-26T23:54:00.530Z,100478.88
2023-03-26T23:56:30.301Z,100477.44
2023-03-26T23:58:57.375Z,100478.50
